Atwood, CO

5:46 PM MDT on September 18, 2014 (GMT -0600)
Sterling Municipal | Change Station
CLOSE
Current Station
Airport
Location: Sterling Muni, Sterling, CO,
Elevation: 4039 ft
Nearby Weather Stations

Elev 4039 ft 40.62 °N, 103.26 °W | Updated 16 minutes ago

Clear
Clear
90 °F
Feels Like 88 °F
N
8
Wind Variable Wind from SE

Today
High -- | Low -- °F
--% Chance of Precip.
Yesterday
High -- | Low -- °F
Precip. -- in
6:36 AM 6:56 PM
Waning Crescent, 23% visible
Pressure 29.86 in
Visibility 10.0 miles
Clouds Clear
Heat Index 88 °F
Dew Point 55 °F
Humidity 31%
Rainfall 0.00 in
Snow Depth 187 in , 0 in , 88 in
UV 1 out of 12
Pollen 6.80 out of 12
Air Quality Not available.
Flu Activity Not available.
METAR KSTK 182330Z AUTO 14007KT 10SM CLR 32/13 A2986 RMK AO2

More Conditions Fewer Conditions

Pressure 29.86 in
Visibility 10.0 miles
Clouds Clear
Heat Index 88 °F
Dew Point 55 °F
Humidity 31%
Rainfall 0.00 in
Snow Depth 187 in , 0 in , 88 in
UV 1 out of 12
Pollen 6.80 out of 12
Air Quality Not available.
Flu Activity Not available.
METAR KSTK 182330Z AUTO 14007KT 10SM CLR 32/13 A2986 RMK AO2

More Conditions Fewer Conditions

10-Day Weather Forecast

Almanac

Astronomy

Sep. 18, 2014 Rise Set
Actual Time 6:36 AM MDT 6:56 PM MDT
Civil Twilight 6:09 AM MDT 7:24 PM MDT
Nautical Twilight 5:37 AM MDT 7:56 PM MDT
Astronomical Twilight 5:04 AM MDT 8:28 PM MDT
Moon 1:29 AM MDT 3:50 PM MDT
Length of Visible Light 13h 14m
Length of Day
12h 20m
Tomorrow will be 2m 40s shorter.
Waning Crescent, 23% of the Moon is Illuminated
Today
Waning Crescent
Sep 24
New
Oct 1
First Quarter
Oct 8
Full
Oct 15
Last Quarter

Today's Extremes

State Highs State Lows

Community

WunderPhotos

Upload Photos

1,754,489 photos uploaded!

WunderBlogs® & News

Nearby

Snow Depth

Station Depth Elevation
Independence Pass 187 in 10600 ft
Vallecito 0 in 10880 ft
Vail Mountain 88 in 10300 ft
Rough And Tumble 1 in 10360 ft
Niwot 0 in 9910 ft

Earthquake Activity

City Distance Mag. Time & Date
No recent earthquake activity has been reported nearby.
Minimum magnitude displayed is 2.5.

Coastal Water Temperatures

Place Temperature
No Stations Reporting

Nearby Weather Stations